createdAt,value
2018-09-15T10:16:05.481Z,1004.68
2018-09-15T10:17:05.500Z,1004.70
2018-09-15T10:18:05.337Z,1004.73
2018-09-15T10:19:05.256Z,1004.70
2018-09-15T10:20:05.196Z,1004.72
2018-09-15T10:21:05.134Z,1004.71
2018-09-15T10:22:05.074Z,1004.71
2018-09-15T10:23:20.979Z,1004.77
2018-09-15T10:24:20.963Z,1004.81
2018-09-15T10:25:20.932Z,1004.73
2018-09-15T10:26:40.847Z,1004.74
2018-09-15T10:27:40.828Z,1004.76
2018-09-15T10:28:40.842Z,1004.71
2018-09-15T10:29:40.811Z,1004.75
2018-09-15T10:30:40.804Z,1004.70
2018-09-15T10:31:40.832Z,1004.61
2018-09-15T10:32:40.773Z,1004.63
2018-09-15T10:33:40.762Z,1004.58
2018-09-15T10:34:40.782Z,1004.57
2018-09-15T10:35:40.740Z,1004.50
2018-09-15T10:36:40.751Z,1004.55
2018-09-15T10:37:40.718Z,1004.56
2018-09-15T10:38:40.707Z,1004.56
2018-09-15T10:39:40.731Z,1004.50
2018-09-15T10:40:40.688Z,1004.52
2018-09-15T10:41:40.696Z,1004.42
2018-09-15T10:42:40.696Z,1004.48
2018-09-15T10:43:40.725Z,1004.48
2018-09-15T10:44:40.645Z,1004.49
2018-09-15T10:45:40.652Z,1004.49
2018-09-15T10:46:40.686Z,1004.51
2018-09-15T10:47:40.637Z,1004.46
2018-09-15T10:48:40.611Z,1004.44
2018-09-15T10:49:40.594Z,1004.47
2018-09-15T10:50:40.580Z,1004.48
2018-09-15T10:51:40.609Z,1004.53
2018-09-15T10:52:40.556Z,1004.51
2018-09-15T10:53:40.569Z,1004.45
2018-09-15T10:54:40.538Z,1004.47
2018-09-15T10:55:40.525Z,1004.42
2018-09-15T10:56:40.513Z,1004.44
2018-09-15T10:57:40.513Z,1004.47
2018-09-15T10:58:40.524Z,1004.51
2018-09-15T10:59:40.479Z,1004.49
2018-09-15T11:00:40.517Z,1004.51
2018-09-15T11:01:40.456Z,1004.50
2018-09-15T11:02:40.450Z,1004.51
2018-09-15T11:03:40.505Z,1004.49
2018-09-15T11:04:40.425Z,1004.50
2018-09-15T11:05:40.421Z,1004.50
2018-09-15T11:06:40.405Z,1004.48
2018-09-15T11:07:40.395Z,1004.51
2018-09-15T11:08:40.428Z,1004.54
2018-09-15T11:09:40.369Z,1004.52
2018-09-15T11:10:40.376Z,1004.48
2018-09-15T11:11:40.348Z,1004.50
2018-09-15T11:12:40.340Z,1004.51
2018-09-15T11:13:40.433Z,1004.54
2018-09-15T11:14:40.317Z,1004.51
2018-09-15T11:15:40.304Z,1004.50
2018-09-15T11:16:40.293Z,1004.51
2018-09-15T11:17:40.285Z,1004.52
2018-09-15T11:18:40.306Z,1004.49
2018-09-15T11:19:40.265Z,1004.50
2018-09-15T11:20:40.257Z,1004.48
2018-09-15T11:21:40.254Z,1004.50
2018-09-15T11:22:40.343Z,1004.49
2018-09-15T11:23:40.222Z,1004.53
2018-09-15T11:24:40.246Z,1004.56
2018-09-15T11:25:47.739Z,1004.54
2018-09-15T11:26:40.183Z,1004.55
2018-09-15T11:27:40.211Z,1004.50
2018-09-15T11:28:40.189Z,1004.50
2018-09-15T11:29:40.156Z,1004.53
2018-09-15T11:30:40.139Z,1004.52
2018-09-15T11:31:40.129Z,1004.51
2018-09-15T11:32:40.142Z,1004.54
2018-09-15T11:33:40.106Z,1004.45
2018-09-15T11:34:40.118Z,1004.47
2018-09-15T11:35:40.106Z,1004.52
2018-09-15T11:36:40.076Z,1004.46
2018-09-15T11:37:40.064Z,1004.52
2018-09-15T11:38:40.063Z,1004.47
2018-09-15T11:39:40.054Z,1004.53
2018-09-15T11:40:40.051Z,1004.53
2018-09-15T11:41:40.054Z,1004.56
2018-09-15T11:42:40.008Z,1004.53
2018-09-15T11:43:40.008Z,1004.52
2018-09-15T11:44:39.993Z,1004.52
2018-09-15T11:45:40.013Z,1004.58
2018-09-15T11:46:39.976Z,1004.49
2018-09-15T11:47:39.953Z,1004.53
2018-09-15T11:48:39.943Z,1004.49
2018-09-15T11:49:39.932Z,1004.46
2018-09-15T11:50:39.950Z,1004.48
2018-09-15T11:51:39.924Z,1004.46
2018-09-15T11:52:39.902Z,1004.45
2018-09-15T11:53:39.893Z,1004.45
2018-09-15T11:54:39.879Z,1004.47
2018-09-15T11:55:39.892Z,1004.45
2018-09-15T11:56:39.877Z,1004.43
2018-09-15T11:57:39.848Z,1004.43
2018-09-15T11:58:39.832Z,1004.43
2018-09-15T11:59:39.822Z,1004.49
2018-09-15T12:00:39.834Z,1004.48
2018-09-15T12:01:39.800Z,1004.48
2018-09-15T12:02:39.788Z,1004.49
2018-09-15T12:03:39.813Z,1004.46
2018-09-15T12:04:39.766Z,1004.48
2018-09-15T12:05:39.756Z,1004.57
2018-09-15T12:06:39.744Z,1004.53
2018-09-15T12:07:39.762Z,1004.56
2018-09-15T12:08:39.722Z,1004.54
2018-09-15T12:09:39.744Z,1004.56
2018-09-15T12:10:39.822Z,1004.58
2018-09-15T12:11:39.689Z,1004.57
2018-09-15T12:12:39.676Z,1004.56
2018-09-15T12:13:39.665Z,1004.52
2018-09-15T12:14:39.655Z,1004.55
2018-09-15T12:15:39.682Z,1004.53
2018-09-15T12:16:39.633Z,1004.49
2018-09-15T12:17:39.644Z,1004.46
2018-09-15T12:18:39.633Z,1004.45
2018-09-15T12:19:39.600Z,1004.45
2018-09-15T12:20:39.589Z,1004.47
2018-09-15T12:21:39.652Z,1004.52
2018-09-15T12:22:39.567Z,1004.45
2018-09-15T12:23:39.581Z,1004.49
2018-09-15T12:24:39.566Z,1004.50
2018-09-15T12:25:39.533Z,1004.54
2018-09-15T12:26:39.522Z,1004.51
2018-09-15T12:27:39.556Z,1004.53
2018-09-15T12:28:39.499Z,1004.55
2018-09-15T12:29:39.528Z,1004.55
2018-09-15T12:30:39.479Z,1004.52
2018-09-15T12:31:39.478Z,1004.53
2018-09-15T12:32:39.457Z,1004.46
2018-09-15T12:33:39.544Z,1004.44
2018-09-15T12:34:39.472Z,1004.45
2018-09-15T12:35:39.425Z,1004.44
2018-09-15T12:36:39.413Z,1004.49
2018-09-15T12:37:39.449Z,1004.50
2018-09-15T12:38:39.398Z,1004.46
2018-09-15T12:39:39.400Z,1004.47
2018-09-15T12:40:39.393Z,1004.42
2018-09-15T12:41:39.356Z,1004.43
2018-09-15T12:42:39.345Z,1004.47
2018-09-15T12:43:39.358Z,1004.43
2018-09-15T12:44:39.369Z,1004.49
2018-09-15T12:45:39.313Z,1004.49
2018-09-15T12:46:39.301Z,1004.48
2018-09-15T12:47:39.323Z,1004.49
2018-09-15T12:48:39.308Z,1004.49
2018-09-15T12:49:39.272Z,1004.50
2018-09-15T12:50:39.257Z,1004.54
2018-09-15T12:51:39.245Z,1004.52
2018-09-15T12:52:39.235Z,1004.52
2018-09-15T12:53:39.252Z,1004.52
2018-09-15T12:54:39.223Z,1004.55
2018-09-15T12:55:39.201Z,1004.55
2018-09-15T12:56:39.192Z,1004.56
2018-09-15T12:57:39.237Z,1004.56
2018-09-15T12:58:39.208Z,1004.53
2018-09-15T12:59:39.162Z,1004.52
2018-09-15T13:00:39.144Z,1004.51
2018-09-15T13:01:39.137Z,1004.42
2018-09-15T13:02:39.127Z,1004.47
2018-09-15T13:03:39.138Z,1004.46
2018-09-15T13:04:39.102Z,1004.48
2018-09-15T13:05:39.141Z,1004.46
2018-09-15T13:06:39.082Z,1004.48
2018-09-15T13:07:39.070Z,1004.44
2018-09-15T13:08:39.057Z,1004.46
2018-09-15T13:09:39.051Z,1004.47
2018-09-15T13:10:39.063Z,1004.44
2018-09-15T13:11:39.025Z,1004.41
2018-09-15T13:12:39.015Z,1004.42
2018-09-15T13:13:39.049Z,1004.42
2018-09-15T13:14:38.991Z,1004.44
2018-09-15T13:15:39.088Z,1004.46
2018-09-15T13:16:38.969Z,1004.44
2018-09-15T13:17:38.970Z,1004.40
2018-09-15T13:18:38.973Z,1004.43
2018-09-15T13:19:38.962Z,1004.45
2018-09-15T13:20:38.943Z,1004.46
2018-09-15T13:21:38.936Z,1004.41
2018-09-15T13:22:38.906Z,1004.44
2018-09-15T13:23:38.934Z,1004.45
2018-09-15T13:24:38.884Z,1004.46
2018-09-15T13:25:38.872Z,1004.47
2018-09-15T13:26:38.983Z,1004.45
2018-09-15T13:27:38.861Z,1004.47
2018-09-15T13:28:38.837Z,1004.48
2018-09-15T13:29:38.959Z,1004.51
2018-09-15T13:30:38.815Z,1004.47
2018-09-15T13:31:38.826Z,1004.49
2018-09-15T13:32:38.792Z,1004.45
2018-09-15T13:33:38.827Z,1004.48
2018-09-15T13:34:38.799Z,1004.45
2018-09-15T13:35:38.764Z,1004.44
2018-09-15T13:36:38.768Z,1004.44
2018-09-15T13:37:38.740Z,1004.43
2018-09-15T13:38:38.762Z,1004.48
2018-09-15T13:39:38.717Z,1004.49
2018-09-15T13:40:38.724Z,1004.48
2018-09-15T13:41:38.691Z,1004.50
2018-09-15T13:42:38.684Z,1004.52
2018-09-15T13:43:38.734Z,1004.51
2018-09-15T13:44:38.665Z,1004.49
2018-09-15T13:45:38.669Z,1004.48
2018-09-15T13:46:38.651Z,1004.53
2018-09-15T13:47:38.628Z,1004.52
2018-09-15T13:48:38.664Z,1004.49
2018-09-15T13:49:38.603Z,1004.44
2018-09-15T13:50:38.718Z,1004.45
2018-09-15T13:51:38.581Z,1004.45
2018-09-15T13:52:38.666Z,1004.45
2018-09-15T13:53:38.562Z,1004.45
2018-09-15T13:54:38.548Z,1004.50
2018-09-15T13:55:38.559Z,1004.52
2018-09-15T13:56:38.573Z,1004.49
2018-09-15T13:57:38.514Z,1004.52
2018-09-15T13:58:38.523Z,1004.51
2018-09-15T13:59:38.492Z,1004.45
2018-09-15T14:00:38.482Z,1004.43
2018-09-15T14:01:38.532Z,1004.51
2018-09-15T14:02:38.459Z,1004.54
2018-09-15T14:03:38.451Z,1004.54
2018-09-15T14:04:38.464Z,1004.58
2018-09-15T14:05:38.426Z,1004.59
2018-09-15T14:06:38.446Z,1004.61
2018-09-15T14:07:38.407Z,1004.59
2018-09-15T14:08:38.394Z,1004.59
2018-09-15T14:09:43.475Z,1004.63
2018-09-15T14:10:38.490Z,1004.67
2018-09-15T14:11:38.389Z,1004.69
2018-09-15T14:12:38.348Z,1004.66
2018-09-15T14:13:38.354Z,1004.66
2018-09-15T14:14:38.416Z,1004.70
2018-09-15T14:15:38.315Z,1004.67
2018-09-15T14:16:38.378Z,1004.70
2018-09-15T14:17:38.318Z,1004.68
2018-09-15T14:18:38.292Z,1004.64
2018-09-15T14:19:38.275Z,1004.69
2018-09-15T14:20:38.266Z,1004.64
2018-09-15T14:21:38.250Z,1004.60
2018-09-15T14:22:38.286Z,1004.60
2018-09-15T14:23:38.257Z,1004.61
2018-09-15T14:24:38.219Z,1004.59
2018-09-15T14:25:38.206Z,1004.58
2018-09-15T14:26:38.256Z,1004.60
2018-09-15T14:27:38.207Z,1004.58
2018-09-15T14:28:38.174Z,1004.58
2018-09-15T14:29:38.165Z,1004.58
2018-09-15T14:30:38.152Z,1004.56
2018-09-15T14:31:38.141Z,1004.62
2018-09-15T14:32:38.165Z,1004.58
2018-09-15T14:33:38.119Z,1004.59
2018-09-15T14:34:38.254Z,1004.61
2018-09-15T14:35:38.102Z,1004.64
2018-09-15T14:36:38.084Z,1004.64
2018-09-15T14:37:38.117Z,1004.63
2018-09-15T14:38:38.125Z,1004.64
2018-09-15T14:39:38.110Z,1004.64
2018-09-15T14:40:38.042Z,1004.66
2018-09-15T14:41:38.034Z,1004.69
2018-09-15T14:42:38.064Z,1004.70
2018-09-15T14:43:38.008Z,1004.72
2018-09-15T14:44:38.026Z,1004.79
2018-09-15T14:45:37.986Z,1004.81
2018-09-15T14:46:37.975Z,1004.82
2018-09-15T14:47:37.970Z,1004.80
2018-09-15T14:48:37.965Z,1004.83
2018-09-15T14:49:37.965Z,1004.84
2018-09-15T14:50:37.953Z,1004.81
2018-09-15T14:51:37.956Z,1004.82
2018-09-15T14:52:37.908Z,1004.78
2018-09-15T14:53:37.900Z,1004.77
2018-09-15T14:54:37.921Z,1004.77
2018-09-15T14:55:37.899Z,1004.80
2018-09-15T14:56:37.877Z,1004.73
2018-09-15T14:57:37.950Z,1004.75
2018-09-15T14:58:37.846Z,1004.75
2018-09-15T14:59:37.837Z,1004.78
2018-09-15T15:00:37.908Z,1004.77
2018-09-15T15:01:37.835Z,1004.70
2018-09-15T15:02:37.843Z,1004.67
2018-09-15T15:03:37.790Z,1004.64
2018-09-15T15:04:37.800Z,1004.62
2018-09-15T15:05:37.831Z,1004.60
2018-09-15T15:06:37.762Z,1004.60
2018-09-15T15:07:37.870Z,1004.50
2018-09-15T15:08:37.780Z,1004.58
2018-09-15T15:09:37.786Z,1004.55
2018-09-15T15:10:37.772Z,1004.57
2018-09-15T15:11:37.793Z,1004.58
2018-09-15T15:12:37.688Z,1004.62
2018-09-15T15:13:37.680Z,1004.63
2018-09-15T15:14:37.693Z,1004.66
2018-09-15T15:15:37.681Z,1004.64
2018-09-15T15:16:37.649Z,1004.70
2018-09-15T15:17:38.047Z,1004.71
2018-09-15T15:18:37.643Z,1004.72
2018-09-15T15:19:37.617Z,1004.73
2018-09-15T15:20:37.601Z,1004.71
2018-09-15T15:21:37.602Z,1004.73
2018-09-15T15:22:37.621Z,1004.74
2018-09-15T15:23:37.593Z,1004.75
2018-09-15T15:24:37.557Z,1004.77
2018-09-15T15:25:37.552Z,1004.76
2018-09-15T15:26:37.723Z,1004.76
2018-09-15T15:27:37.549Z,1004.81
2018-09-15T15:28:37.536Z,1004.79
2018-09-15T15:29:37.502Z,1004.76
2018-09-15T15:30:37.492Z,1004.74
2018-09-15T15:31:37.576Z,1004.68
2018-09-15T15:32:37.534Z,1004.74
2018-09-15T15:33:37.481Z,1004.78
2018-09-15T15:34:37.518Z,1004.77
2018-09-15T15:35:37.503Z,1004.79
2018-09-15T15:36:37.426Z,1004.83
2018-09-15T15:37:37.445Z,1004.83
2018-09-15T15:38:37.423Z,1004.87
2018-09-15T15:39:38.381Z,1004.91
2018-09-15T15:40:37.413Z,1004.89
2018-09-15T15:41:37.384Z,1004.89
2018-09-15T15:42:37.358Z,1004.91
2018-09-15T15:43:37.356Z,1004.89
2018-09-15T15:44:37.356Z,1004.88
2018-09-15T15:45:37.350Z,1004.88
2018-09-15T15:46:37.313Z,1004.86
2018-09-15T15:47:37.301Z,1004.91
2018-09-15T15:48:37.316Z,1004.94
2018-09-15T15:49:37.308Z,1004.95
2018-09-15T15:50:37.269Z,1004.99
2018-09-15T15:51:37.374Z,1005.00
2018-09-15T15:52:37.247Z,1005.02
2018-09-15T15:53:37.260Z,1004.99
2018-09-15T15:54:37.225Z,1004.99
2018-09-15T15:55:37.285Z,1004.98
2018-09-15T15:56:37.984Z,1004.95
2018-09-15T15:57:37.192Z,1004.98
2018-09-15T15:58:37.449Z,1005.00
2018-09-15T15:59:37.171Z,1004.96
2018-09-15T16:00:37.158Z,1004.95
2018-09-15T16:01:37.226Z,1004.97
2018-09-15T16:02:37.142Z,1004.93
2018-09-15T16:03:37.165Z,1004.92
2018-09-15T16:04:37.117Z,1004.95
2018-09-15T16:05:37.131Z,1004.91
2018-09-15T16:06:37.101Z,1004.97
2018-09-15T16:07:37.129Z,1004.96
2018-09-15T16:08:37.075Z,1005.00
2018-09-15T16:09:37.060Z,1005.01
2018-09-15T16:10:37.051Z,1004.99
2018-09-15T16:11:37.064Z,1005.02
2018-09-15T16:12:37.050Z,1004.99
2018-09-15T16:13:37.082Z,1004.94
2018-09-15T16:14:37.006Z,1004.99
2018-09-15T16:15:37.023Z,1005.00
2018-09-15T16:16:36.987Z,1004.99
2018-09-15T16:17:36.979Z,1004.96
2018-09-15T16:18:36.960Z,1004.95
2018-09-15T16:19:36.978Z,1005.02
2018-09-15T16:20:36.961Z,1005.06
2018-09-15T16:21:36.932Z,1005.08
2018-09-15T16:22:36.923Z,1005.09
2018-09-15T16:23:36.930Z,1005.06
2018-09-15T16:24:36.902Z,1005.08
2018-09-15T16:25:36.928Z,1005.08
2018-09-15T16:26:36.889Z,1005.06
2018-09-15T16:27:36.862Z,1005.07
2018-09-15T16:28:36.865Z,1005.07
2018-09-15T16:29:36.841Z,1005.11
2018-09-15T16:30:36.833Z,1005.11
2018-09-15T16:31:36.841Z,1005.13
2018-09-15T16:32:36.824Z,1005.15
2018-09-15T16:33:36.826Z,1005.13
2018-09-15T16:34:36.788Z,1005.12
2018-09-15T16:35:36.775Z,1005.11
2018-09-15T16:36:36.763Z,1005.09
2018-09-15T16:37:36.752Z,1005.09
2018-09-15T16:38:36.776Z,1005.06
2018-09-15T16:39:36.785Z,1005.07
2018-09-15T16:40:36.779Z,1005.04
2018-09-15T16:41:36.708Z,1005.08
2018-09-15T16:42:36.703Z,1005.10
2018-09-15T16:43:36.711Z,1005.12
2018-09-15T16:44:36.673Z,1005.13
2018-09-15T16:45:36.663Z,1005.13
2018-09-15T16:46:36.708Z,1005.13
2018-09-15T16:47:36.785Z,1005.10
2018-09-15T16:48:36.629Z,1005.15
2018-09-15T16:49:36.639Z,1005.12
2018-09-15T16:50:36.607Z,1005.14
2018-09-15T16:51:36.599Z,1005.15
2018-09-15T16:52:36.611Z,1005.18
2018-09-15T16:53:36.581Z,1005.17
2018-09-15T16:54:36.565Z,1005.14
2018-09-15T16:55:36.555Z,1005.16
2018-09-15T16:56:36.549Z,1005.15
2018-09-15T16:57:36.554Z,1005.18
2018-09-15T16:58:36.527Z,1005.17
2018-09-15T16:59:36.508Z,1005.13
2018-09-15T17:00:36.550Z,1005.20
2018-09-15T17:01:36.510Z,1005.19
2018-09-15T17:02:36.475Z,1005.21
2018-09-15T17:03:36.464Z,1005.22
2018-09-15T17:04:36.455Z,1005.21
2018-09-15T17:05:36.487Z,1005.18
2018-09-15T17:06:36.502Z,1005.17
2018-09-15T17:07:36.422Z,1005.16
2018-09-15T17:08:36.411Z,1005.17
2018-09-15T17:09:36.450Z,1005.19
2018-09-15T17:10:36.431Z,1005.18
2018-09-15T17:11:36.384Z,1005.17
2018-09-15T17:12:36.411Z,1005.16
2018-09-15T17:13:36.371Z,1005.22
2018-09-15T17:14:36.370Z,1005.24
2018-09-15T17:15:36.336Z,1005.23
2018-09-15T17:16:36.389Z,1005.26
2018-09-15T17:17:36.337Z,1005.29
2018-09-15T17:18:36.393Z,1005.28
2018-09-15T17:19:36.287Z,1005.26
2018-09-15T17:20:36.329Z,1005.30
2018-09-15T17:21:36.265Z,1005.28
2018-09-15T17:22:36.447Z,1005.28
2018-09-15T17:23:36.247Z,1005.27
2018-09-15T17:24:36.301Z,1005.28
2018-09-15T17:25:36.250Z,1005.34
2018-09-15T17:26:36.394Z,1005.35
2018-09-15T17:27:36.220Z,1005.35
2018-09-15T17:28:36.301Z,1005.33
2018-09-15T17:29:36.178Z,1005.34
2018-09-15T17:30:36.196Z,1005.37
2018-09-15T17:31:36.159Z,1005.40
2018-09-15T17:32:36.165Z,1005.40
2018-09-15T17:33:36.133Z,1005.43
2018-09-15T17:34:36.131Z,1005.45
2018-09-15T17:35:36.108Z,1005.42
2018-09-15T17:36:36.125Z,1005.40
2018-09-15T17:37:36.096Z,1005.44
2018-09-15T17:38:36.075Z,1005.43
2018-09-15T17:39:36.067Z,1005.44
2018-09-15T17:40:36.083Z,1005.47
2018-09-15T17:41:36.042Z,1005.46
2018-09-15T17:42:36.054Z,1005.48
2018-09-15T17:43:36.025Z,1005.46
2018-09-15T17:44:36.010Z,1005.51
2018-09-15T17:45:36.056Z,1005.53
2018-09-15T17:46:36.130Z,1005.55
2018-09-15T17:47:36.006Z,1005.57
2018-09-15T17:48:35.996Z,1005.60
2018-09-15T17:49:35.953Z,1005.62
2018-09-15T17:50:35.946Z,1005.63
2018-09-15T17:51:35.935Z,1005.57
2018-09-15T17:52:35.944Z,1005.58
2018-09-15T17:53:35.939Z,1005.60
2018-09-15T17:54:35.957Z,1005.59
2018-09-15T17:55:35.890Z,1005.60
2018-09-15T17:56:35.879Z,1005.63
2018-09-15T17:57:35.869Z,1005.63
2018-09-15T17:58:35.875Z,1005.62
2018-09-15T17:59:35.850Z,1005.62
2018-09-15T18:00:35.872Z,1005.63
2018-09-15T18:01:35.826Z,1005.68
2018-09-15T18:02:35.810Z,1005.64
2018-09-15T18:03:35.908Z,1005.69
2018-09-15T18:04:35.817Z,1005.65
2018-09-15T18:05:35.777Z,1005.69
2018-09-15T18:06:35.785Z,1005.71
2018-09-15T18:07:35.777Z,1005.73
2018-09-15T18:08:35.742Z,1005.72
2018-09-15T18:09:35.761Z,1005.72
2018-09-15T18:10:35.746Z,1005.68
2018-09-15T18:11:35.716Z,1005.74
2018-09-15T18:12:35.700Z,1005.71
2018-09-15T18:13:35.710Z,1005.74
2018-09-15T18:14:35.686Z,1005.75
2018-09-15T18:15:35.665Z,1005.74
2018-09-15T18:16:35.656Z,1005.78
2018-09-15T18:17:35.643Z,1005.75
2018-09-15T18:18:35.659Z,1005.79
2018-09-15T18:19:35.622Z,1005.75
2018-09-15T18:20:35.611Z,1005.76
2018-09-15T18:21:35.609Z,1005.81
2018-09-15T18:22:35.589Z,1005.84
2018-09-15T18:23:35.610Z,1005.84
2018-09-15T18:24:35.564Z,1005.89
2018-09-15T18:25:35.553Z,1005.87
2018-09-15T18:26:35.550Z,1005.91
2018-09-15T18:27:35.558Z,1005.88
2018-09-15T18:28:35.525Z,1005.89
2018-09-15T18:29:35.510Z,1005.90
2018-09-15T18:30:35.729Z,1005.90
2018-09-15T18:31:35.486Z,1005.89
2018-09-15T18:32:35.497Z,1005.93
2018-09-15T18:33:35.514Z,1005.89
2018-09-15T18:34:35.459Z,1005.87
2018-09-15T18:35:35.444Z,1005.88
2018-09-15T18:36:35.499Z,1005.93
2018-09-15T18:37:35.455Z,1005.91
2018-09-15T18:38:35.441Z,1005.91
2018-09-15T18:39:35.405Z,1005.91
2018-09-15T18:40:35.390Z,1005.94
2018-09-15T18:41:35.381Z,1005.95
2018-09-15T18:42:35.364Z,1005.94
2018-09-15T18:43:35.378Z,1005.93
2018-09-15T18:44:35.346Z,1005.92
2018-09-15T18:45:35.339Z,1005.91
2018-09-15T18:46:35.323Z,1005.93
2018-09-15T18:47:35.310Z,1005.91
2018-09-15T18:48:35.320Z,1005.85
2018-09-15T18:49:35.291Z,1005.91
2018-09-15T18:50:35.321Z,1005.93
2018-09-15T18:51:35.263Z,1005.93
2018-09-15T18:52:35.252Z,1005.99
2018-09-15T18:53:35.273Z,1005.97
2018-09-15T18:54:35.229Z,1005.98
2018-09-15T18:55:35.241Z,1005.97
2018-09-15T18:56:35.292Z,1006.02
2018-09-15T18:57:35.197Z,1006.03
2018-09-15T18:58:35.556Z,1006.01
2018-09-15T18:59:35.174Z,1005.99
2018-09-15T19:00:35.218Z,1006.03
2018-09-15T19:01:35.155Z,1006.05
2018-09-15T19:02:35.147Z,1006.07
2018-09-15T19:03:35.155Z,1006.06
2018-09-15T19:04:35.130Z,1006.06
2018-09-15T19:05:35.107Z,1006.07
2018-09-15T19:06:35.096Z,1006.05
2018-09-15T19:07:35.086Z,1006.02
2018-09-15T19:08:35.099Z,1006.01
2018-09-15T19:09:35.068Z,1006.03
2018-09-15T19:10:35.061Z,1006.07
2018-09-15T19:11:35.045Z,1006.08
2018-09-15T19:12:35.033Z,1006.04
2018-09-15T19:13:35.042Z,1006.03
2018-09-15T19:14:35.061Z,1006.12
2018-09-15T19:15:35.023Z,1006.14
2018-09-15T19:16:34.987Z,1006.12
2018-09-15T19:17:34.977Z,1006.19
2018-09-15T19:18:34.999Z,1006.19
2018-09-15T19:19:34.953Z,1006.19
2018-09-15T19:20:34.965Z,1006.15
2018-09-15T19:21:34.930Z,1006.20
2018-09-15T19:22:34.921Z,1006.15
2018-09-15T19:23:34.907Z,1006.15
2018-09-15T19:24:34.903Z,1006.15
2018-09-15T19:25:34.900Z,1006.18
2018-09-15T19:26:34.915Z,1006.18
2018-09-15T19:27:34.869Z,1006.22
2018-09-15T19:28:34.852Z,1006.24
2018-09-15T19:29:34.841Z,1006.25
2018-09-15T19:30:34.855Z,1006.27
2018-09-15T19:31:34.870Z,1006.26
2018-09-15T19:32:34.829Z,1006.30
2018-09-15T19:33:34.800Z,1006.27
2018-09-15T19:34:34.809Z,1006.24
2018-09-15T19:35:34.795Z,1006.30
2018-09-15T19:36:34.765Z,1006.31
2018-09-15T19:37:34.754Z,1006.33
2018-09-15T19:38:34.745Z,1006.33
2018-09-15T19:39:34.733Z,1006.34
2018-09-15T19:40:34.746Z,1006.32
2018-09-15T19:41:34.708Z,1006.33
2018-09-15T19:42:34.737Z,1006.34
2018-09-15T19:43:34.686Z,1006.31
2018-09-15T19:44:34.677Z,1006.37
2018-09-15T19:45:34.713Z,1006.31
2018-09-15T19:46:34.656Z,1006.31
2018-09-15T19:47:34.641Z,1006.31
2018-09-15T19:48:34.640Z,1006.28
2018-09-15T19:49:34.628Z,1006.31
2018-09-15T19:50:34.631Z,1006.36
2018-09-15T19:51:34.598Z,1006.33
2018-09-15T19:52:34.692Z,1006.34
2018-09-15T19:53:34.576Z,1006.33
2018-09-15T19:54:34.580Z,1006.37
2018-09-15T19:55:34.575Z,1006.44
2018-09-15T19:56:34.563Z,1006.43
2018-09-15T19:57:34.533Z,1006.36
2018-09-15T19:58:34.529Z,1006.41
2018-09-15T19:59:34.532Z,1006.42
2018-09-15T20:00:34.504Z,1006.40
2018-09-15T20:01:34.491Z,1006.42
2018-09-15T20:02:34.511Z,1006.38
2018-09-15T20:03:34.489Z,1006.43
2018-09-15T20:04:34.462Z,1006.41
2018-09-15T20:05:34.470Z,1006.46
2018-09-15T20:06:34.448Z,1006.41
2018-09-15T20:07:34.424Z,1006.43
2018-09-15T20:08:34.437Z,1006.47
2018-09-15T20:09:34.400Z,1006.48
2018-09-15T20:10:34.390Z,1006.52
2018-09-15T20:11:34.382Z,1006.50
2018-09-15T20:12:34.373Z,1006.52
2018-09-15T20:13:34.386Z,1006.48
2018-09-15T20:14:34.344Z,1006.47
2018-09-15T20:15:34.379Z,1006.54
2018-09-15T20:16:34.323Z,1006.51
2018-09-15T20:17:34.309Z,1006.53
2018-09-15T20:18:34.338Z,1006.53
2018-09-15T20:19:34.294Z,1006.47
2018-09-15T20:20:34.279Z,1006.50
2018-09-15T20:21:34.267Z,1006.49
2018-09-15T20:22:34.255Z,1006.51
2018-09-15T20:23:34.265Z,1006.53
2018-09-15T20:24:34.281Z,1006.52
2018-09-15T20:25:34.220Z,1006.56
2018-09-15T20:26:34.212Z,1006.60
2018-09-15T20:27:34.200Z,1006.56
2018-09-15T20:28:34.193Z,1006.60
2018-09-15T20:29:34.200Z,1006.58
2018-09-15T20:30:34.176Z,1006.61
2018-09-15T20:31:34.165Z,1006.65
2018-09-15T20:32:34.171Z,1006.59
2018-09-15T20:33:34.132Z,1006.63
2018-09-15T20:34:34.143Z,1006.61
2018-09-15T20:35:34.110Z,1006.61
2018-09-15T20:36:34.107Z,1006.60
2018-09-15T20:37:34.087Z,1006.62
2018-09-15T20:38:34.109Z,1006.65
2018-09-15T20:39:34.080Z,1006.64
2018-09-15T20:40:34.057Z,1006.58
2018-09-15T20:41:34.044Z,1006.59
2018-09-15T20:42:34.036Z,1006.57
2018-09-15T20:43:34.049Z,1006.60
2018-09-15T20:44:34.009Z,1006.61
2018-09-15T20:45:34.009Z,1006.61
2018-09-15T20:46:33.987Z,1006.63
2018-09-15T20:47:33.974Z,1006.58
2018-09-15T20:48:33.986Z,1006.59
2018-09-15T20:49:33.952Z,1006.62
2018-09-15T20:50:33.944Z,1006.59
2018-09-15T20:51:33.944Z,1006.60
2018-09-15T20:52:33.942Z,1006.60
2018-09-15T20:53:33.907Z,1006.64
2018-09-15T20:54:33.895Z,1006.59
2018-09-15T20:55:33.888Z,1006.63
2018-09-15T20:56:33.895Z,1006.63
2018-09-15T20:57:33.868Z,1006.59
2018-09-15T20:58:33.852Z,1006.62
2018-09-15T20:59:33.864Z,1006.60
2018-09-15T21:00:33.829Z,1006.59
2018-09-15T21:01:33.841Z,1006.60
2018-09-15T21:02:33.809Z,1006.62
2018-09-15T21:03:33.834Z,1006.66
2018-09-15T21:04:33.785Z,1006.64
2018-09-15T21:05:33.787Z,1006.64
2018-09-15T21:06:33.789Z,1006.65
2018-09-15T21:07:33.751Z,1006.61
2018-09-15T21:08:33.741Z,1006.63
2018-09-15T21:09:33.747Z,1006.64
2018-09-15T21:10:33.741Z,1006.63
2018-09-15T21:11:33.706Z,1006.61
2018-09-15T21:12:33.695Z,1006.63
2018-09-15T21:13:33.689Z,1006.66
2018-09-15T21:14:33.682Z,1006.68
2018-09-15T21:15:33.728Z,1006.70
2018-09-15T21:16:33.655Z,1006.75
2018-09-15T21:17:33.646Z,1006.69
2018-09-15T21:18:33.629Z,1006.69
2018-09-15T21:19:33.625Z,1006.73
2018-09-15T21:20:33.628Z,1006.73
2018-09-15T21:21:33.605Z,1006.74
2018-09-15T21:22:33.586Z,1006.72
2018-09-15T21:23:33.575Z,1006.76
2018-09-15T21:24:33.570Z,1006.76
2018-09-15T21:25:33.592Z,1006.79
2018-09-15T21:26:33.544Z,1006.79
2018-09-15T21:27:33.527Z,1006.80
2018-09-15T21:28:33.548Z,1006.85
2018-09-15T21:29:33.510Z,1006.81
2018-09-15T21:30:33.531Z,1006.79
2018-09-15T21:31:33.485Z,1006.86
2018-09-15T21:32:33.501Z,1006.82
2018-09-15T21:33:33.474Z,1006.85
2018-09-15T21:34:33.472Z,1006.85
2018-09-15T21:35:33.461Z,1006.87
2018-09-15T21:36:33.452Z,1006.89
2018-09-15T21:37:33.453Z,1006.88
2018-09-15T21:38:33.463Z,1006.90
2018-09-15T21:39:33.395Z,1006.90
2018-09-15T21:40:33.384Z,1006.90
2018-09-15T21:41:33.406Z,1006.91
2018-09-15T21:42:33.362Z,1006.92
2018-09-15T21:43:33.356Z,1006.85
2018-09-15T21:44:33.347Z,1006.89
2018-09-15T21:45:33.326Z,1006.88
2018-09-15T21:46:33.338Z,1006.87
2018-09-15T21:47:33.307Z,1006.91
2018-09-15T21:48:33.325Z,1006.90
2018-09-15T21:49:33.287Z,1006.93
2018-09-15T21:50:33.275Z,1006.95
2018-09-15T21:51:33.287Z,1006.93
2018-09-15T21:52:33.251Z,1006.95
2018-09-15T21:53:33.302Z,1006.93
2018-09-15T21:54:33.241Z,1006.94
2018-09-15T21:55:33.239Z,1006.95
2018-09-15T21:56:33.204Z,1006.95
2018-09-15T21:57:33.193Z,1006.98
2018-09-15T21:58:33.182Z,1006.93
2018-09-15T21:59:33.192Z,1006.93
2018-09-15T22:00:33.191Z,1006.96
2018-09-15T22:01:33.154Z,1006.98
2018-09-15T22:02:33.142Z,1006.96
2018-09-15T22:03:33.125Z,1006.98
2018-09-15T22:04:33.116Z,1006.99
2018-09-15T22:05:33.164Z,1007.03
2018-09-15T22:06:33.094Z,1006.99
2018-09-15T22:07:33.099Z,1007.01
2018-09-15T22:08:33.070Z,1007.06
2018-09-15T22:09:33.130Z,1007.03
2018-09-15T22:10:33.096Z,1007.04
2018-09-15T22:11:33.042Z,1007.02
2018-09-15T22:12:33.032Z,1007.04
2018-09-15T22:13:33.015Z,1007.05
2018-09-15T22:14:33.003Z,1007.02
2018-09-15T22:15:33.052Z,1007.03
2018-09-15T22:16:32.993Z,1007.03
2018-09-15T22:17:32.973Z,1007.06
2018-09-15T22:18:32.959Z,1007.08
2018-09-15T22:19:32.954Z,1007.10
2018-09-15T22:20:32.976Z,1007.08
2018-09-15T22:21:33.068Z,1007.13